sensor_id;sensor_type;location;lat;lon;timestamp;P1;durP1;ratioP1;P2;durP2;ratioP2
17670;SDS011;8954;48.694;8.940;2022-09-03T00:02:42;339.10;;;118.57;;
17670;SDS011;8954;48.694;8.940;2022-09-03T00:13:30;335.80;;;116.77;;
17670;SDS011;8954;48.694;8.940;2022-09-03T00:16:03;338.87;;;118.43;;
17670;SDS011;8954;48.694;8.940;2022-09-03T00:18:34;341.53;;;122.03;;
17670;SDS011;8954;48.694;8.940;2022-09-03T00:21:28;336.10;;;115.40;;
17670;SDS011;8954;48.694;8.940;2022-09-03T00:24:02;336.93;;;118.43;;
17670;SDS011;8954;48.694;8.940;2022-09-03T00:26:32;338.23;;;120.47;;
17670;SDS011;8954;48.694;8.940;2022-09-03T00:29:04;336.77;;;118.43;;
17670;SDS011;8954;48.694;8.940;2022-09-03T00:31:47;337.87;;;119.97;;
17670;SDS011;8954;48.694;8.940;2022-09-03T00:34:32;337.27;;;119.23;;
17670;SDS011;8954;48.694;8.940;2022-09-03T00:37:03;336.93;;;118.87;;
17670;SDS011;8954;48.694;8.940;2022-09-03T00:39:29;333.77;;;116.80;;
17670;SDS011;8954;48.694;8.940;2022-09-03T00:42:03;339.07;;;119.87;;
17670;SDS011;8954;48.694;8.940;2022-09-03T00:45:07;337.67;;;118.60;;
17670;SDS011;8954;48.694;8.940;2022-09-03T00:58:29;336.70;;;117.50;;
17670;SDS011;8954;48.694;8.940;2022-09-03T01:01:14;334.70;;;115.80;;
17670;SDS011;8954;48.694;8.940;2022-09-03T01:06:52;336.50;;;115.40;;
17670;SDS011;8954;48.694;8.940;2022-09-03T01:20:34;342.83;;;120.73;;
17670;SDS011;8954;48.694;8.940;2022-09-03T01:23:22;336.57;;;115.73;;
17670;SDS011;8954;48.694;8.940;2022-09-03T01:26:30;337.20;;;115.80;;
17670;SDS011;8954;48.694;8.940;2022-09-03T01:29:02;337.30;;;116.53;;
17670;SDS011;8954;48.694;8.940;2022-09-03T01:35:02;334.80;;;113.80;;
17670;SDS011;8954;48.694;8.940;2022-09-03T01:45:52;338.43;;;114.77;;
17670;SDS011;8954;48.694;8.940;2022-09-03T01:51:17;337.53;;;116.77;;
17670;SDS011;8954;48.694;8.940;2022-09-03T01:53:55;341.20;;;116.90;;
17670;SDS011;8954;48.694;8.940;2022-09-03T02:02:31;340.67;;;116.17;;
17670;SDS011;8954;48.694;8.940;2022-09-03T02:05:06;338.63;;;116.13;;
17670;SDS011;8954;48.694;8.940;2022-09-03T02:07:41;339.13;;;116.60;;
17670;SDS011;8954;48.694;8.940;2022-09-03T02:10:31;344.03;;;118.40;;
17670;SDS011;8954;48.694;8.940;2022-09-03T02:13:13;341.47;;;117.33;;
17670;SDS011;8954;48.694;8.940;2022-09-03T02:15:43;338.37;;;115.97;;
17670;SDS011;8954;48.694;8.940;2022-09-03T02:18:17;336.70;;;113.87;;
17670;SDS011;8954;48.694;8.940;2022-09-03T02:20:48;339.60;;;115.17;;
17670;SDS011;8954;48.694;8.940;2022-09-03T02:23:16;337.33;;;115.07;;
17670;SDS011;8954;48.694;8.940;2022-09-03T02:25:43;339.57;;;117.37;;
17670;SDS011;8954;48.694;8.940;2022-09-03T02:28:14;339.83;;;115.43;;
17670;SDS011;8954;48.694;8.940;2022-09-03T02:30:40;349.53;;;121.97;;
17670;SDS011;8954;48.694;8.940;2022-09-03T02:33:06;338.90;;;116.80;;
17670;SDS011;8954;48.694;8.940;2022-09-03T02:35:32;343.03;;;117.03;;
17670;SDS011;8954;48.694;8.940;2022-09-03T02:38:08;338.17;;;115.53;;
17670;SDS011;8954;48.694;8.940;2022-09-03T02:40:37;345.47;;;119.37;;
17670;SDS011;8954;48.694;8.940;2022-09-03T02:43:03;337.20;;;113.27;;
17670;SDS011;8954;48.694;8.940;2022-09-03T02:45:32;335.33;;;112.63;;
17670;SDS011;8954;48.694;8.940;2022-09-03T02:48:01;334.67;;;112.87;;
17670;SDS011;8954;48.694;8.940;2022-09-03T02:50:28;340.40;;;115.70;;
17670;SDS011;8954;48.694;8.940;2022-09-03T02:52:53;339.00;;;114.23;;
17670;SDS011;8954;48.694;8.940;2022-09-03T02:55:20;336.03;;;111.50;;
17670;SDS011;8954;48.694;8.940;2022-09-03T02:57:46;339.50;;;113.47;;
17670;SDS011;8954;48.694;8.940;2022-09-03T03:00:12;338.73;;;110.37;;
17670;SDS011;8954;48.694;8.940;2022-09-03T03:02:38;336.50;;;109.20;;
17670;SDS011;8954;48.694;8.940;2022-09-03T03:05:04;334.87;;;108.77;;
17670;SDS011;8954;48.694;8.940;2022-09-03T03:07:33;336.37;;;108.80;;
17670;SDS011;8954;48.694;8.940;2022-09-03T03:10:02;337.90;;;110.87;;
17670;SDS011;8954;48.694;8.940;2022-09-03T03:12:28;337.60;;;110.83;;
17670;SDS011;8954;48.694;8.940;2022-09-03T03:14:54;338.23;;;109.37;;
17670;SDS011;8954;48.694;8.940;2022-09-03T03:17:20;338.53;;;110.00;;
17670;SDS011;8954;48.694;8.940;2022-09-03T03:19:46;335.03;;;107.97;;
17670;SDS011;8954;48.694;8.940;2022-09-03T03:22:11;335.33;;;107.20;;
17670;SDS011;8954;48.694;8.940;2022-09-03T03:24:37;336.73;;;109.13;;
17670;SDS011;8954;48.694;8.940;2022-09-03T03:27:03;333.67;;;107.57;;
17670;SDS011;8954;48.694;8.940;2022-09-03T03:29:30;336.07;;;109.63;;
17670;SDS011;8954;48.694;8.940;2022-09-03T03:31:55;335.97;;;111.07;;
17670;SDS011;8954;48.694;8.940;2022-09-03T03:34:22;339.87;;;111.37;;
17670;SDS011;8954;48.694;8.940;2022-09-03T03:36:47;335.20;;;108.53;;
17670;SDS011;8954;48.694;8.940;2022-09-03T03:39:13;331.53;;;106.40;;
17670;SDS011;8954;48.694;8.940;2022-09-03T03:41:39;336.97;;;108.60;;
17670;SDS011;8954;48.694;8.940;2022-09-03T03:44:05;336.70;;;108.60;;
17670;SDS011;8954;48.694;8.940;2022-09-03T03:46:33;332.53;;;106.37;;
17670;SDS011;8954;48.694;8.940;2022-09-03T03:49:00;339.60;;;111.60;;
17670;SDS011;8954;48.694;8.940;2022-09-03T03:51:26;332.47;;;104.93;;
17670;SDS011;8954;48.694;8.940;2022-09-03T03:53:56;340.03;;;110.83;;
17670;SDS011;8954;48.694;8.940;2022-09-03T03:56:22;335.60;;;107.47;;
17670;SDS011;8954;48.694;8.940;2022-09-03T03:58:50;337.43;;;111.20;;
17670;SDS011;8954;48.694;8.940;2022-09-03T04:01:21;348.70;;;158.75;;
17670;SDS011;8954;48.694;8.940;2022-09-03T04:03:48;336.30;;;121.60;;
17670;SDS011;8954;48.694;8.940;2022-09-03T04:06:15;338.53;;;118.03;;
17670;SDS011;8954;48.694;8.940;2022-09-03T04:08:43;334.83;;;113.30;;
17670;SDS011;8954;48.694;8.940;2022-09-03T04:11:11;338.23;;;112.23;;
17670;SDS011;8954;48.694;8.940;2022-09-03T04:13:39;334.90;;;111.97;;
17670;SDS011;8954;48.694;8.940;2022-09-03T04:16:10;334.77;;;111.53;;
17670;SDS011;8954;48.694;8.940;2022-09-03T04:18:38;336.07;;;111.37;;
17670;SDS011;8954;48.694;8.940;2022-09-03T04:21:06;334.57;;;110.30;;
17670;SDS011;8954;48.694;8.940;2022-09-03T04:23:34;332.70;;;108.70;;
17670;SDS011;8954;48.694;8.940;2022-09-03T04:26:05;334.73;;;110.90;;
17670;SDS011;8954;48.694;8.940;2022-09-03T04:28:31;336.30;;;112.00;;
17670;SDS011;8954;48.694;8.940;2022-09-03T04:31:01;335.30;;;111.17;;
17670;SDS011;8954;48.694;8.940;2022-09-03T04:33:29;333.33;;;108.47;;
17670;SDS011;8954;48.694;8.940;2022-09-03T04:36:08;333.30;;;107.87;;
17670;SDS011;8954;48.694;8.940;2022-09-03T04:38:41;336.00;;;111.57;;
17670;SDS011;8954;48.694;8.940;2022-09-03T04:41:09;335.80;;;108.80;;
17670;SDS011;8954;48.694;8.940;2022-09-03T04:43:46;337.10;;;111.33;;
17670;SDS011;8954;48.694;8.940;2022-09-03T04:46:13;336.53;;;110.00;;
17670;SDS011;8954;48.694;8.940;2022-09-03T04:48:41;339.33;;;113.00;;
17670;SDS011;8954;48.694;8.940;2022-09-03T04:51:10;333.57;;;109.73;;
17670;SDS011;8954;48.694;8.940;2022-09-03T04:53:39;338.43;;;112.70;;
17670;SDS011;8954;48.694;8.940;2022-09-03T04:56:13;336.33;;;113.23;;
17670;SDS011;8954;48.694;8.940;2022-09-03T04:58:43;338.23;;;110.87;;
17670;SDS011;8954;48.694;8.940;2022-09-03T05:01:14;336.70;;;113.47;;
17670;SDS011;8954;48.694;8.940;2022-09-03T05:03:41;334.27;;;111.47;;
17670;SDS011;8954;48.694;8.940;2022-09-03T05:06:07;336.13;;;114.17;;
17670;SDS011;8954;48.694;8.940;2022-09-03T05:08:33;338.57;;;115.50;;
17670;SDS011;8954;48.694;8.940;2022-09-03T05:11:01;339.03;;;116.27;;
17670;SDS011;8954;48.694;8.940;2022-09-03T05:13:30;335.90;;;112.40;;
17670;SDS011;8954;48.694;8.940;2022-09-03T05:16:01;340.90;;;117.77;;
17670;SDS011;8954;48.694;8.940;2022-09-03T05:18:28;339.57;;;115.40;;
17670;SDS011;8954;48.694;8.940;2022-09-03T05:21:00;336.27;;;114.27;;
17670;SDS011;8954;48.694;8.940;2022-09-03T05:23:28;336.83;;;115.00;;
17670;SDS011;8954;48.694;8.940;2022-09-03T05:25:59;336.50;;;116.27;;
17670;SDS011;8954;48.694;8.940;2022-09-03T05:28:27;337.53;;;116.93;;
17670;SDS011;8954;48.694;8.940;2022-09-03T05:30:59;339.03;;;118.00;;
17670;SDS011;8954;48.694;8.940;2022-09-03T05:33:29;335.90;;;115.67;;
17670;SDS011;8954;48.694;8.940;2022-09-03T05:36:02;337.37;;;117.97;;
17670;SDS011;8954;48.694;8.940;2022-09-03T05:38:29;338.00;;;116.83;;
17670;SDS011;8954;48.694;8.940;2022-09-03T05:40:58;337.47;;;116.97;;
17670;SDS011;8954;48.694;8.940;2022-09-03T05:43:29;339.93;;;119.97;;
17670;SDS011;8954;48.694;8.940;2022-09-03T05:45:58;339.00;;;121.20;;
17670;SDS011;8954;48.694;8.940;2022-09-03T05:48:25;337.67;;;120.33;;
17670;SDS011;8954;48.694;8.940;2022-09-03T05:50:59;340.57;;;121.13;;
17670;SDS011;8954;48.694;8.940;2022-09-03T05:53:30;338.67;;;119.90;;
17670;SDS011;8954;48.694;8.940;2022-09-03T05:56:02;342.40;;;124.23;;
17670;SDS011;8954;48.694;8.940;2022-09-03T05:58:36;342.07;;;123.23;;
17670;SDS011;8954;48.694;8.940;2022-09-03T06:01:11;344.93;;;126.50;;
17670;SDS011;8954;48.694;8.940;2022-09-03T06:03:52;337.73;;;122.17;;
17670;SDS011;8954;48.694;8.940;2022-09-03T06:06:19;338.53;;;122.40;;
17670;SDS011;8954;48.694;8.940;2022-09-03T06:08:55;341.70;;;127.63;;
17670;SDS011;8954;48.694;8.940;2022-09-03T06:11:23;341.00;;;128.10;;
17670;SDS011;8954;48.694;8.940;2022-09-03T06:13:52;345.27;;;130.73;;
17670;SDS011;8954;48.694;8.940;2022-09-03T06:16:19;343.27;;;130.90;;
17670;SDS011;8954;48.694;8.940;2022-09-03T06:18:46;346.80;;;132.47;;
17670;SDS011;8954;48.694;8.940;2022-09-03T06:21:11;346.13;;;136.57;;
17670;SDS011;8954;48.694;8.940;2022-09-03T06:23:39;344.90;;;134.67;;
17670;SDS011;8954;48.694;8.940;2022-09-03T06:26:06;346.00;;;133.90;;
17670;SDS011;8954;48.694;8.940;2022-09-03T06:28:37;347.67;;;137.73;;
17670;SDS011;8954;48.694;8.940;2022-09-03T06:31:05;345.17;;;136.50;;
17670;SDS011;8954;48.694;8.940;2022-09-03T06:33:33;344.53;;;138.70;;
17670;SDS011;8954;48.694;8.940;2022-09-03T06:36:01;342.03;;;132.97;;
17670;SDS011;8954;48.694;8.940;2022-09-03T06:38:30;344.57;;;135.10;;
17670;SDS011;8954;48.694;8.940;2022-09-03T06:41:00;349.57;;;144.10;;
17670;SDS011;8954;48.694;8.940;2022-09-03T06:43:28;346.23;;;137.97;;
17670;SDS011;8954;48.694;8.940;2022-09-03T06:45:56;347.67;;;138.53;;
17670;SDS011;8954;48.694;8.940;2022-09-03T06:48:28;343.73;;;138.13;;
17670;SDS011;8954;48.694;8.940;2022-09-03T06:50:56;344.00;;;136.53;;
17670;SDS011;8954;48.694;8.940;2022-09-03T06:53:24;344.90;;;142.70;;
17670;SDS011;8954;48.694;8.940;2022-09-03T06:55:51;345.47;;;141.10;;
17670;SDS011;8954;48.694;8.940;2022-09-03T06:58:20;347.47;;;141.40;;
17670;SDS011;8954;48.694;8.940;2022-09-03T07:00:47;348.43;;;144.87;;
17670;SDS011;8954;48.694;8.940;2022-09-03T07:03:14;346.77;;;143.13;;
17670;SDS011;8954;48.694;8.940;2022-09-03T07:05:41;344.77;;;145.23;;
17670;SDS011;8954;48.694;8.940;2022-09-03T07:08:08;345.80;;;146.07;;
17670;SDS011;8954;48.694;8.940;2022-09-03T07:10:37;349.93;;;150.30;;
17670;SDS011;8954;48.694;8.940;2022-09-03T07:13:04;348.43;;;152.37;;
17670;SDS011;8954;48.694;8.940;2022-09-03T07:15:32;343.30;;;149.03;;
17670;SDS011;8954;48.694;8.940;2022-09-03T07:17:58;344.10;;;154.37;;
17670;SDS011;8954;48.694;8.940;2022-09-03T07:20:25;346.03;;;155.30;;
17670;SDS011;8954;48.694;8.940;2022-09-03T07:22:54;344.17;;;154.77;;
17670;SDS011;8954;48.694;8.940;2022-09-03T07:25:22;347.30;;;159.57;;
17670;SDS011;8954;48.694;8.940;2022-09-03T07:27:48;347.87;;;161.13;;
17670;SDS011;8954;48.694;8.940;2022-09-03T07:30:15;348.00;;;163.53;;
17670;SDS011;8954;48.694;8.940;2022-09-03T07:32:43;347.77;;;165.30;;
17670;SDS011;8954;48.694;8.940;2022-09-03T07:35:10;345.43;;;159.53;;
17670;SDS011;8954;48.694;8.940;2022-09-03T07:37:39;345.07;;;163.43;;
17670;SDS011;8954;48.694;8.940;2022-09-03T07:40:07;344.60;;;159.97;;
17670;SDS011;8954;48.694;8.940;2022-09-03T07:42:34;343.77;;;156.03;;
17670;SDS011;8954;48.694;8.940;2022-09-03T07:45:02;341.60;;;153.70;;
17670;SDS011;8954;48.694;8.940;2022-09-03T07:47:34;345.10;;;164.40;;
17670;SDS011;8954;48.694;8.940;2022-09-03T07:50:00;346.63;;;166.63;;
17670;SDS011;8954;48.694;8.940;2022-09-03T07:52:26;342.90;;;165.20;;
17670;SDS011;8954;48.694;8.940;2022-09-03T07:54:52;346.30;;;173.40;;
17670;SDS011;8954;48.694;8.940;2022-09-03T07:57:17;343.07;;;169.90;;
17670;SDS011;8954;48.694;8.940;2022-09-03T07:59:43;341.90;;;173.03;;
17670;SDS011;8954;48.694;8.940;2022-09-03T08:02:09;348.23;;;190.03;;
17670;SDS011;8954;48.694;8.940;2022-09-03T08:04:35;346.15;;;196.23;;
17670;SDS011;8954;48.694;8.940;2022-09-03T08:07:00;347.45;;;205.95;;
17670;SDS011;8954;48.694;8.940;2022-09-03T08:09:28;350.52;;;221.38;;
17670;SDS011;8954;48.694;8.940;2022-09-03T08:11:57;351.38;;;237.50;;
17670;SDS011;8954;48.694;8.940;2022-09-03T08:14:23;359.17;;;256.50;;
17670;SDS011;8954;48.694;8.940;2022-09-03T08:16:48;353.48;;;266.27;;
17670;SDS011;8954;48.694;8.940;2022-09-03T08:19:14;363.10;;;284.25;;
17670;SDS011;8954;48.694;8.940;2022-09-03T08:21:42;367.02;;;309.98;;
17670;SDS011;8954;48.694;8.940;2022-09-03T08:24:09;363.70;;;316.08;;
17670;SDS011;8954;48.694;8.940;2022-09-03T08:26:36;375.15;;;333.95;;
17670;SDS011;8954;48.694;8.940;2022-09-03T08:29:03;368.17;;;322.40;;
17670;SDS011;8954;48.694;8.940;2022-09-03T08:31:30;367.73;;;321.08;;
17670;SDS011;8954;48.694;8.940;2022-09-03T08:33:57;362.80;;;302.17;;
17670;SDS011;8954;48.694;8.940;2022-09-03T08:36:24;364.27;;;310.98;;
17670;SDS011;8954;48.694;8.940;2022-09-03T08:38:51;361.80;;;299.42;;
17670;SDS011;8954;48.694;8.940;2022-09-03T08:41:31;362.27;;;313.52;;
17670;SDS011;8954;48.694;8.940;2022-09-03T08:46:50;367.33;;;325.02;;
17670;SDS011;8954;48.694;8.940;2022-09-03T08:49:20;361.77;;;307.02;;
17670;SDS011;8954;48.694;8.940;2022-09-03T08:51:47;360.20;;;300.52;;
17670;SDS011;8954;48.694;8.940;2022-09-03T08:54:14;364.48;;;308.23;;
17670;SDS011;8954;48.694;8.940;2022-09-03T08:56:41;358.65;;;290.98;;
17670;SDS011;8954;48.694;8.940;2022-09-03T08:59:08;362.38;;;300.23;;
17670;SDS011;8954;48.694;8.940;2022-09-03T09:07:07;362.60;;;305.45;;
17670;SDS011;8954;48.694;8.940;2022-09-03T09:09:40;362.48;;;300.48;;
17670;SDS011;8954;48.694;8.940;2022-09-03T09:12:36;358.30;;;288.95;;
17670;SDS011;8954;48.694;8.940;2022-09-03T09:15:12;354.50;;;271.60;;
17670;SDS011;8954;48.694;8.940;2022-09-03T09:17:48;357.05;;;265.58;;
17670;SDS011;8954;48.694;8.940;2022-09-03T09:23:19;362.65;;;301.77;;
17670;SDS011;8954;48.694;8.940;2022-09-03T09:25:50;403.35;;;361.13;;
17670;SDS011;8954;48.694;8.940;2022-09-03T09:28:20;467.58;;;423.95;;
17670;SDS011;8954;48.694;8.940;2022-09-03T09:30:48;522.38;;;478.02;;
17670;SDS011;8954;48.694;8.940;2022-09-03T09:33:19;557.85;;;512.97;;
17670;SDS011;8954;48.694;8.940;2022-09-03T09:35:47;587.08;;;541.55;;
17670;SDS011;8954;48.694;8.940;2022-09-03T09:38:13;592.28;;;546.72;;
17670;SDS011;8954;48.694;8.940;2022-09-03T09:40:41;602.55;;;556.60;;
17670;SDS011;8954;48.694;8.940;2022-09-03T09:43:11;594.45;;;548.97;;
17670;SDS011;8954;48.694;8.940;2022-09-03T09:45:44;584.25;;;539.05;;
17670;SDS011;8954;48.694;8.940;2022-09-03T09:48:22;565.13;;;520.42;;
17670;SDS011;8954;48.694;8.940;2022-09-03T09:51:12;548.13;;;503.55;;
17670;SDS011;8954;48.694;8.940;2022-09-03T09:53:42;504.30;;;460.63;;
17670;SDS011;8954;48.694;8.940;2022-09-03T09:56:19;492.45;;;448.80;;
17670;SDS011;8954;48.694;8.940;2022-09-03T09:58:45;459.88;;;417.10;;
17670;SDS011;8954;48.694;8.940;2022-09-03T10:01:22;452.33;;;409.48;;
17670;SDS011;8954;48.694;8.940;2022-09-03T10:03:55;424.75;;;382.42;;
17670;SDS011;8954;48.694;8.940;2022-09-03T10:06:32;402.23;;;360.63;;
17670;SDS011;8954;48.694;8.940;2022-09-03T10:09:21;392.73;;;351.42;;
17670;SDS011;8954;48.694;8.940;2022-09-03T10:11:51;387.55;;;346.50;;
17670;SDS011;8954;48.694;8.940;2022-09-03T10:14:22;389.80;;;348.58;;
17670;SDS011;8954;48.694;8.940;2022-09-03T10:17:18;385.75;;;344.75;;
17670;SDS011;8954;48.694;8.940;2022-09-03T10:26:21;395.08;;;353.77;;
17670;SDS011;8954;48.694;8.940;2022-09-03T10:28:56;403.08;;;361.73;;
17670;SDS011;8954;48.694;8.940;2022-09-03T10:31:31;415.42;;;373.50;;
17670;SDS011;8954;48.694;8.940;2022-09-03T10:37:28;451.48;;;408.40;;
17670;SDS011;8954;48.694;8.940;2022-09-03T10:43:02;474.40;;;431.02;;
17670;SDS011;8954;48.694;8.940;2022-09-03T10:46:21;474.10;;;430.85;;
17670;SDS011;8954;48.694;8.940;2022-09-03T10:54:04;457.27;;;414.48;;
17670;SDS011;8954;48.694;8.940;2022-09-03T10:56:38;455.73;;;412.92;;
17670;SDS011;8954;48.694;8.940;2022-09-03T11:01:58;426.42;;;383.73;;
17670;SDS011;8954;48.694;8.940;2022-09-03T11:04:55;394.98;;;353.23;;
17670;SDS011;8954;48.694;8.940;2022-09-03T11:08:11;384.33;;;343.05;;
17670;SDS011;8954;48.694;8.940;2022-09-03T11:10:42;369.90;;;326.63;;
17670;SDS011;8954;48.694;8.940;2022-09-03T11:13:25;363.08;;;308.95;;
17670;SDS011;8954;48.694;8.940;2022-09-03T11:16:02;361.77;;;293.73;;
17670;SDS011;8954;48.694;8.940;2022-09-03T11:21:13;355.30;;;271.67;;
17670;SDS011;8954;48.694;8.940;2022-09-03T11:23:44;358.05;;;271.05;;
17670;SDS011;8954;48.694;8.940;2022-09-03T11:26:17;353.25;;;254.77;;
17670;SDS011;8954;48.694;8.940;2022-09-03T11:34:47;348.95;;;226.73;;
17670;SDS011;8954;48.694;8.940;2022-09-03T11:37:16;349.00;;;224.73;;
17670;SDS011;8954;48.694;8.940;2022-09-03T11:39:53;352.17;;;227.67;;
17670;SDS011;8954;48.694;8.940;2022-09-03T11:42:46;351.20;;;216.17;;
17670;SDS011;8954;48.694;8.940;2022-09-03T11:48:00;347.67;;;205.37;;
17670;SDS011;8954;48.694;8.940;2022-09-03T11:50:49;348.83;;;199.23;;
17670;SDS011;8954;48.694;8.940;2022-09-03T11:58:40;346.43;;;188.27;;
17670;SDS011;8954;48.694;8.940;2022-09-03T12:01:20;347.30;;;189.77;;
17670;SDS011;8954;48.694;8.940;2022-09-03T12:14:19;343.23;;;132.50;;
17670;SDS011;8954;48.694;8.940;2022-09-03T12:22:21;339.77;;;116.50;;
17670;SDS011;8954;48.694;8.940;2022-09-03T12:25:06;341.43;;;128.57;;
17670;SDS011;8954;48.694;8.940;2022-09-03T12:27:35;339.37;;;114.33;;
17670;SDS011;8954;48.694;8.940;2022-09-03T12:30:02;341.77;;;124.03;;
17670;SDS011;8954;48.694;8.940;2022-09-03T12:32:31;338.53;;;118.97;;
17670;SDS011;8954;48.694;8.940;2022-09-03T12:35:12;340.07;;;123.57;;
17670;SDS011;8954;48.694;8.940;2022-09-03T12:37:44;339.30;;;116.67;;
17670;SDS011;8954;48.694;8.940;2022-09-03T12:42:50;341.50;;;125.83;;
17670;SDS011;8954;48.694;8.940;2022-09-03T12:45:18;338.67;;;121.73;;
17670;SDS011;8954;48.694;8.940;2022-09-03T12:47:46;341.10;;;121.27;;
17670;SDS011;8954;48.694;8.940;2022-09-03T12:50:14;339.17;;;121.43;;
17670;SDS011;8954;48.694;8.940;2022-09-03T12:55:18;344.27;;;129.70;;
17670;SDS011;8954;48.694;8.940;2022-09-03T12:58:15;342.37;;;129.40;;
17670;SDS011;8954;48.694;8.940;2022-09-03T13:00:46;344.90;;;128.13;;
17670;SDS011;8954;48.694;8.940;2022-09-03T13:06:09;340.90;;;130.37;;
17670;SDS011;8954;48.694;8.940;2022-09-03T13:08:45;339.57;;;130.67;;
17670;SDS011;8954;48.694;8.940;2022-09-03T13:11:18;339.53;;;135.70;;
17670;SDS011;8954;48.694;8.940;2022-09-03T13:16:26;341.40;;;147.03;;
17670;SDS011;8954;48.694;8.940;2022-09-03T13:19:07;340.13;;;151.50;;
17670;SDS011;8954;48.694;8.940;2022-09-03T13:24:16;340.23;;;159.87;;
17670;SDS011;8954;48.694;8.940;2022-09-03T13:27:16;344.73;;;170.47;;
17670;SDS011;8954;48.694;8.940;2022-09-03T13:30:15;341.10;;;167.67;;
17670;SDS011;8954;48.694;8.940;2022-09-03T13:35:33;343.67;;;167.67;;
17670;SDS011;8954;48.694;8.940;2022-09-03T13:41:45;340.57;;;159.30;;
17670;SDS011;8954;48.694;8.940;2022-09-03T13:46:47;338.10;;;157.13;;
17670;SDS011;8954;48.694;8.940;2022-09-03T13:55:22;339.83;;;178.30;;
17670;SDS011;8954;48.694;8.940;2022-09-03T13:58:07;343.88;;;195.75;;
17670;SDS011;8954;48.694;8.940;2022-09-03T14:01:33;345.88;;;210.57;;
17670;SDS011;8954;48.694;8.940;2022-09-03T14:03:45;348.65;;;230.45;;
17670;SDS011;8954;48.694;8.940;2022-09-03T14:12:24;345.85;;;227.20;;
17670;SDS011;8954;48.694;8.940;2022-09-03T14:21:04;346.88;;;225.45;;
17670;SDS011;8954;48.694;8.940;2022-09-03T14:23:50;348.58;;;231.20;;
17670;SDS011;8954;48.694;8.940;2022-09-03T14:26:26;345.65;;;208.75;;
17670;SDS011;8954;48.694;8.940;2022-09-03T14:29:01;346.43;;;206.60;;
17670;SDS011;8954;48.694;8.940;2022-09-03T14:37:05;343.70;;;184.23;;
17670;SDS011;8954;48.694;8.940;2022-09-03T14:39:54;342.90;;;182.60;;
17670;SDS011;8954;48.694;8.940;2022-09-03T14:42:38;341.80;;;179.83;;
17670;SDS011;8954;48.694;8.940;2022-09-03T14:50:49;343.03;;;188.50;;
17670;SDS011;8954;48.694;8.940;2022-09-03T15:01:32;344.10;;;200.57;;
17670;SDS011;8954;48.694;8.940;2022-09-03T15:12:17;342.98;;;206.18;;
17670;SDS011;8954;48.694;8.940;2022-09-03T15:15:11;343.58;;;214.55;;
17670;SDS011;8954;48.694;8.940;2022-09-03T15:17:46;343.70;;;211.73;;
17670;SDS011;8954;48.694;8.940;2022-09-03T15:20:21;347.27;;;212.25;;
17670;SDS011;8954;48.694;8.940;2022-09-03T15:25:39;342.02;;;206.20;;
17670;SDS011;8954;48.694;8.940;2022-09-03T15:36:24;342.10;;;192.60;;
17670;SDS011;8954;48.694;8.940;2022-09-03T15:39:12;342.43;;;183.27;;
17670;SDS011;8954;48.694;8.940;2022-09-03T15:41:45;343.63;;;185.60;;
17670;SDS011;8954;48.694;8.940;2022-09-03T15:44:17;343.50;;;188.83;;
17670;SDS011;8954;48.694;8.940;2022-09-03T15:46:59;340.33;;;185.83;;
17670;SDS011;8954;48.694;8.940;2022-09-03T15:57:04;342.40;;;183.23;;
17670;SDS011;8954;48.694;8.940;2022-09-03T16:02:16;342.67;;;185.33;;
17670;SDS011;8954;48.694;8.940;2022-09-03T16:15:28;339.33;;;169.10;;
17670;SDS011;8954;48.694;8.940;2022-09-03T16:21:45;341.67;;;168.57;;
17670;SDS011;8954;48.694;8.940;2022-09-03T16:24:27;342.13;;;168.07;;
17670;SDS011;8954;48.694;8.940;2022-09-03T16:27:41;343.47;;;170.70;;
17670;SDS011;8954;48.694;8.940;2022-09-03T16:30:13;343.43;;;174.53;;
17670;SDS011;8954;48.694;8.940;2022-09-03T16:38:53;344.43;;;175.03;;
17670;SDS011;8954;48.694;8.940;2022-09-03T16:52:37;339.40;;;161.50;;
17670;SDS011;8954;48.694;8.940;2022-09-03T17:01:07;340.53;;;170.13;;
17670;SDS011;8954;48.694;8.940;2022-09-03T17:17:42;340.80;;;188.43;;
17670;SDS011;8954;48.694;8.940;2022-09-03T17:20:20;340.43;;;181.37;;
17670;SDS011;8954;48.694;8.940;2022-09-03T17:26:10;338.07;;;166.10;;
17670;SDS011;8954;48.694;8.940;2022-09-03T17:53:44;342.27;;;149.27;;
17670;SDS011;8954;48.694;8.940;2022-09-03T17:56:53;340.37;;;145.83;;
17670;SDS011;8954;48.694;8.940;2022-09-03T17:59:42;340.93;;;145.50;;
17670;SDS011;8954;48.694;8.940;2022-09-03T18:07:12;339.90;;;143.70;;
17670;SDS011;8954;48.694;8.940;2022-09-03T18:09:50;343.43;;;148.43;;
17670;SDS011;8954;48.694;8.940;2022-09-03T18:15:09;342.83;;;143.57;;
17670;SDS011;8954;48.694;8.940;2022-09-03T18:20:17;346.93;;;154.57;;
17670;SDS011;8954;48.694;8.940;2022-09-03T18:26:25;347.97;;;140.03;;
17670;SDS011;8954;48.694;8.940;2022-09-03T18:29:38;346.23;;;142.13;;
17670;SDS011;8954;48.694;8.940;2022-09-03T18:32:20;345.73;;;137.53;;
17670;SDS011;8954;48.694;8.940;2022-09-03T18:35:06;347.50;;;146.10;;
17670;SDS011;8954;48.694;8.940;2022-09-03T18:37:52;344.90;;;136.73;;
17670;SDS011;8954;48.694;8.940;2022-09-03T18:41:23;346.73;;;135.83;;
17670;SDS011;8954;48.694;8.940;2022-09-03T18:43:55;349.40;;;144.47;;
17670;SDS011;8954;48.694;8.940;2022-09-03T18:46:54;342.23;;;130.53;;
17670;SDS011;8954;48.694;8.940;2022-09-03T18:50:00;345.27;;;138.00;;
17670;SDS011;8954;48.694;8.940;2022-09-03T18:53:01;346.47;;;138.43;;
17670;SDS011;8954;48.694;8.940;2022-09-03T19:02:26;341.83;;;127.97;;
17670;SDS011;8954;48.694;8.940;2022-09-03T19:05:52;347.17;;;138.60;;
17670;SDS011;8954;48.694;8.940;2022-09-03T19:12:00;343.60;;;133.60;;
17670;SDS011;8954;48.694;8.940;2022-09-03T19:15:26;344.73;;;130.93;;
17670;SDS011;8954;48.694;8.940;2022-09-03T19:21:35;342.20;;;127.60;;
17670;SDS011;8954;48.694;8.940;2022-09-03T19:24:28;344.10;;;131.80;;
17670;SDS011;8954;48.694;8.940;2022-09-03T19:27:23;339.43;;;124.23;;
17670;SDS011;8954;48.694;8.940;2022-09-03T19:30:20;344.57;;;133.37;;
17670;SDS011;8954;48.694;8.940;2022-09-03T19:39:34;339.40;;;120.70;;
17670;SDS011;8954;48.694;8.940;2022-09-03T19:45:52;338.27;;;119.63;;
17670;SDS011;8954;48.694;8.940;2022-09-03T19:48:54;339.67;;;119.80;;
17670;SDS011;8954;48.694;8.940;2022-09-03T19:55:00;337.10;;;117.07;;
17670;SDS011;8954;48.694;8.940;2022-09-03T19:57:46;339.40;;;125.13;;
17670;SDS011;8954;48.694;8.940;2022-09-03T20:00:37;340.70;;;122.33;;
17670;SDS011;8954;48.694;8.940;2022-09-03T20:03:23;336.07;;;118.93;;
17670;SDS011;8954;48.694;8.940;2022-09-03T20:06:09;342.87;;;129.33;;
17670;SDS011;8954;48.694;8.940;2022-09-03T20:08:56;337.90;;;119.70;;
17670;SDS011;8954;48.694;8.940;2022-09-03T20:11:46;337.07;;;119.50;;
17670;SDS011;8954;48.694;8.940;2022-09-03T20:14:13;339.90;;;125.30;;
17670;SDS011;8954;48.694;8.940;2022-09-03T20:16:43;338.43;;;119.33;;
17670;SDS011;8954;48.694;8.940;2022-09-03T20:22:46;339.03;;;117.47;;